Time;durP1;ratioP1;P1;durP2;ratioP2;P2;SDS_P1;SDS_P2;PMS_P1;PMS_P2;Temp;Humidity;BMP_temperature;BMP_pressure;BME280_temperature;BME280_humidity;BME280_pressure;Samples;Min_cycle;Max_cycle;Signal;HPM_P1;HPM_P2
2021/11/09 00:01:03;;;;;;;;;;;;;;;;;;5087528;28;20205;-78
2021/11/09 00:03:29;;;;;;;;;;;;;;;;;;5069534;28;19957;-78
2021/11/09 00:08:24;;;;;;;;;;;;;;;;;;5087953;28;19904;-78
2021/11/09 00:10:52;;;;;;;;;;;;;;;;;;5070340;28;19908;-78
2021/11/09 00:13:18;;;;;;;;;;;;;;;;;;5069230;28;19915;-78
2021/11/09 00:15:43;;;;;;;;;;;;;;;;;;5062214;28;19912;-78
2021/11/09 00:18:10;;;;;;;;;;;;;;;;;;5086875;28;20057;-78
2021/11/09 00:20:36;;;;;;;;;;;;;;;;;;5087560;28;19943;-78
2021/11/09 00:23:02;;;;;;;;;;;;;;;;;;5089240;28;19912;-79
2021/11/09 00:25:28;;;;;;;;;;;;;;;;;;5091614;28;19911;-78
2021/11/09 00:27:53;;;;;;;;;;;;;;;;;;5090773;28;19926;-77
2021/11/09 00:30:19;;;;;;;;;;;;;;;;;;5072947;28;19904;-77
2021/11/09 00:32:45;;;;;;;;;;;;;;;;;;5072069;28;20017;-78
2021/11/09 00:35:11;;;;;;;;;;;;;;;;;;5072006;28;19908;-77
2021/11/09 00:37:37;;;;;;;;;;;;;;;;;;5072866;28;20391;-78
2021/11/09 00:40:03;;;;;;;;;;;;;;;;;;5071818;28;19912;-79
2021/11/09 00:42:29;;;;;;;;;;;;;;;;;;5071863;28;19907;-78
2021/11/09 00:44:55;;;;;;;;;;;;;;;;;;5072876;28;20275;-78
2021/11/09 00:47:20;;;;;;;;;;;;;;;;;;5071795;28;19982;-77
2021/11/09 00:49:46;;;;;;;;;;;;;;;;;;5072121;28;20528;-78
2021/11/09 00:52:12;;;;;;;;;;;;;;;;;;5069067;28;19918;-78
2021/11/09 00:54:39;;;;;;;;;;;;;;;;;;5068701;28;19957;-78
2021/11/09 00:57:04;;;;;;;;;;;;;;;;;;5072397;28;19907;-78
2021/11/09 00:59:30;;;;;;;;;;;;;;;;;;5072042;28;20360;-78
2021/11/09 01:01:56;;;;;;;;;;;;;;;;;;5090209;28;20343;-77
2021/11/09 01:04:22;;;;;;;;;;;;;;;;;;5071739;28;19950;-78
2021/11/09 01:06:48;;;;;;;;;;;;;;;;;;5090503;28;19935;-78
2021/11/09 01:09:14;;;;;;;;;;;;;;;;;;5089754;28;19957;-78
2021/11/09 01:11:40;;;;;;;;;;;;;;;;;;5071693;28;20227;-78
2021/11/09 01:14:06;;;;;;;;;;;;;;;;;;5072025;28;19942;-78
2021/11/09 01:16:32;;;;;;;;;;;;;;;;;;5071452;28;20030;-78
2021/11/09 01:18:58;;;;;;;;;;;;;;;;;;5076156;28;19916;-77
2021/11/09 01:21:24;;;;;;;;;;;;;;;;;;5071322;28;20343;-78
2021/11/09 01:23:50;;;;;;;;;;;;;;;;;;5063985;28;19908;-78
2021/11/09 01:26:16;;;;;;;;;;;;;;;;;;5071553;28;20215;-78
2021/11/09 01:28:42;;;;;;;;;;;;;;;;;;5071703;28;20501;-77
2021/11/09 01:31:08;;;;;;;;;;;;;;;;;;5071265;28;19931;-78
2021/11/09 01:33:33;;;;;;;;;;;;;;;;;;5070188;28;20393;-77
2021/11/09 01:35:59;;;;;;;;;;;;;;;;;;5089443;28;19919;-77
2021/11/09 01:38:25;;;;;;;;;;;;;;;;;;5079560;28;19908;-77
2021/11/09 01:40:52;;;;;;;;;;;;;;;;;;5089376;28;20291;-78
2021/11/09 01:43:18;;;;;;;;;;;;;;;;;;5071185;28;19955;-78
2021/11/09 01:45:48;;;;;;;;;;;;;;;;;;5059793;28;20313;-78
2021/11/09 01:48:14;;;;;;;;;;;;;;;;;;5071036;28;20576;-78
2021/11/09 01:50:39;;;;;;;;;;;;;;;;;;5071026;28;20022;-77
2021/11/09 01:53:05;;;;;;;;;;;;;;;;;;5069476;28;19908;-77
2021/11/09 01:55:32;;;;;;;;;;;;;;;;;;5071327;28;19919;-77
2021/11/09 01:57:58;;;;;;;;;;;;;;;;;;5070890;28;19934;-78
2021/11/09 02:00:24;;;;;;;;;;;;;;;;;;5088918;28;19916;-77
2021/11/09 02:02:50;;;;;;;;;;;;;;;;;;5070089;28;19919;-78
2021/11/09 02:05:16;;;;;;;;;;;;;;;;;;5069966;28;19950;-77
2021/11/09 02:07:42;;;;;;;;;;;;;;;;;;5088764;28;20525;-79
2021/11/09 02:10:08;;;;;;;;;;;;;;;;;;5088699;28;20185;-78
2021/11/09 02:12:34;;;;;;;;;;;;;;;;;;5088149;28;20002;-78
2021/11/09 02:14:59;;;;;;;;;;;;;;;;;;5070087;28;20381;-77
2021/11/09 02:17:25;;;;;;;;;;;;;;;;;;5069921;28;19908;-78
2021/11/09 02:19:51;;;;;;;;;;;;;;;;;;5068498;28;20398;-77
2021/11/09 02:22:17;;;;;;;;;;;;;;;;;;5086969;28;20165;-78
2021/11/09 02:24:43;;;;;;;;;;;;;;;;;;5069789;28;20367;-79
2021/11/09 02:27:09;;;;;;;;;;;;;;;;;;5070528;28;19949;-77
2021/11/09 02:29:36;;;;;;;;;;;;;;;;;;5070003;28;19908;-78
2021/11/09 02:32:03;;;;;;;;;;;;;;;;;;5088435;28;19954;-78
2021/11/09 02:34:29;;;;;;;;;;;;;;;;;;5069771;28;19908;-77
2021/11/09 02:36:55;;;;;;;;;;;;;;;;;;5069654;28;19945;-77
2021/11/09 02:39:21;;;;;;;;;;;;;;;;;;5087428;28;19916;-76
2021/11/09 02:41:46;;;;;;;;;;;;;;;;;;5088180;28;19990;-77
2021/11/09 02:44:12;;;;;;;;;;;;;;;;;;5083325;28;19909;-78
2021/11/09 02:46:50;;;;;;;;;;;;;;;;;;5068013;28;19927;-78
2021/11/09 02:51:50;;;;;;;;;;;;;;;;;;5068093;28;20593;-77
2021/11/09 02:57:03;;;;;;;;;;;;;;;;;;5072555;28;20254;-77
2021/11/09 03:02:04;;;;;;;;;;;;;;;;;;5088393;28;19912;-77
2021/11/09 03:10:12;;;;;;;;;;;;;;;;;;5055449;28;20014;-76
2021/11/09 03:12:38;;;;;;;;;;;;;;;;;;5070226;28;19918;-78
2021/11/09 03:15:04;;;;;;;;;;;;;;;;;;5069204;28;19915;-78
2021/11/09 03:17:40;;;;;;;;;;;;;;;;;;5069759;28;19908;-78
2021/11/09 03:20:06;;;;;;;;;;;;;;;;;;5087604;28;20511;-78
2021/11/09 03:47:06;;;;;;;;;;;;;;;;;;5087494;28;20275;-77
2021/11/09 03:49:33;;;;;;;;;;;;;;;;;;5068971;28;19908;-77
2021/11/09 03:52:00;;;;;;;;;;;;;;;;;;5073421;28;20008;-79
2021/11/09 03:54:27;;;;;;;;;;;;;;;;;;5069129;28;19923;-77
2021/11/09 03:59:46;;;;;;;;;;;;;;;;;;5071111;28;19985;-77
2021/11/09 04:04:45;;;;;;;;;;;;;;;;;;5075760;28;19911;-78
2021/11/09 04:07:24;;;;;;;;;;;;;;;;;;5072653;28;19908;-77
2021/11/09 04:10:07;;;;;;;;;;;;;;;;;;5069674;28;20295;-77
2021/11/09 04:28:16;;;;;;;;;;;;;;;;;;5090058;28;20298;-77
2021/11/09 04:34:04;;;;;;;;;;;;;;;;;;5090560;28;19904;-77
2021/11/09 05:09:08;;;;;;;;;;;;;;;;;;5078220;28;19962;-78
2021/11/09 05:11:37;;;;;;;;;;;;;;;;;;5074391;28;20316;-77
2021/11/09 05:14:02;;;;;;;;;;;;;;;;;;5063586;28;19923;-76
2021/11/09 05:16:29;;;;;;;;;;;;;;;;;;5063157;28;20291;-76
2021/11/09 05:18:55;;;;;;;;;;;;;;;;;;5068253;28;19951;-78
2021/11/09 05:21:21;;;;;;;;;;;;;;;;;;5066535;28;20116;-77
2021/11/09 05:23:47;;;;;;;;;;;;;;;;;;5054955;28;20249;-77
2021/11/09 05:26:13;;;;;;;;;;;;;;;;;;5053973;28;19955;-76
2021/11/09 05:28:38;;;;;;;;;;;;;;;;;;5064587;28;19934;-77
2021/11/09 05:31:04;;;;;;;;;;;;;;;;;;5074951;28;20365;-77
2021/11/09 05:33:32;;;;;;;;;;;;;;;;;;5077214;28;19904;-77
2021/11/09 05:35:59;;;;;;;;;;;;;;;;;;5055092;28;19912;-77
2021/11/09 05:39:08;;;;;;;;;;;;;;;;;;5063783;28;19915;-77
2021/11/09 05:41:20;;;;;;;;;;;;;;;;;;5074069;28;19916;-77
2021/11/09 05:43:45;;;;;;;;;;;;;;;;;;5081803;28;20342;-77
2021/11/09 05:46:11;;;;;;;;;;;;;;;;;;5077970;28;19915;-77
2021/11/09 05:48:37;;;;;;;;;;;;;;;;;;5077605;28;20310;-77
2021/11/09 05:51:03;;;;;;;;;;;;;;;;;;5075740;28;20314;-77
2021/11/09 05:53:30;;;;;;;;;;;;;;;;;;5081113;28;20172;-77
2021/11/09 05:55:56;;;;;;;;;;;;;;;;;;5080716;28;19912;-77
2021/11/09 05:58:22;;;;;;;;;;;;;;;;;;5084728;28;20363;-75
2021/11/09 06:00:48;;;;;;;;;;;;;;;;;;5052030;28;20042;-77
2021/11/09 06:03:14;;;;;;;;;;;;;;;;;;5067522;28;19919;-78
2021/11/09 06:05:40;;;;;;;;;;;;;;;;;;5056947;28;19913;-78
2021/11/09 06:08:06;;;;;;;;;;;;;;;;;;5058871;28;19986;-77
2021/11/09 06:10:32;;;;;;;;;;;;;;;;;;5061706;28;19934;-77
2021/11/09 06:12:59;;;;;;;;;;;;;;;;;;5066901;28;20260;-77
2021/11/09 06:15:24;;;;;;;;;;;;;;;;;;5067082;28;20282;-77
2021/11/09 06:17:50;;;;;;;;;;;;;;;;;;5079042;28;19904;-77
2021/11/09 06:20:16;;;;;;;;;;;;;;;;;;5068494;28;19990;-76
2021/11/09 06:22:42;;;;;;;;;;;;;;;;;;5052744;28;19960;-76
2021/11/09 06:25:08;;;;;;;;;;;;;;;;;;5073612;28;19912;-76
2021/11/09 06:27:34;;;;;;;;;;;;;;;;;;5079787;28;20363;-77
2021/11/09 06:30:00;;;;;;;;;;;;;;;;;;5063074;28;19915;-77
2021/11/09 06:32:26;;;;;;;;;;;;;;;;;;5050804;28;19908;-77
2021/11/09 06:34:52;;;;;;;;;;;;;;;;;;5072451;28;19939;-78
2021/11/09 06:37:17;;;;;;;;;;;;;;;;;;5058505;28;19920;-76
2021/11/09 06:39:44;;;;;;;;;;;;;;;;;;5080602;28;19912;-77
2021/11/09 06:42:10;;;;;;;;;;;;;;;;;;5077694;28;19919;-77
2021/11/09 06:44:36;;;;;;;;;;;;;;;;;;5064901;28;19920;-78
2021/11/09 06:47:02;;;;;;;;;;;;;;;;;;5083151;28;19908;-77
2021/11/09 06:49:28;;;;;;;;;;;;;;;;;;5064996;28;19999;-77
2021/11/09 06:51:54;;;;;;;;;;;;;;;;;;5069414;28;19912;-78
2021/11/09 06:54:20;;;;;;;;;;;;;;;;;;5058987;28;19938;-78
2021/11/09 06:56:46;;;;;;;;;;;;;;;;;;5059018;28;19908;-77
2021/11/09 06:59:14;;;;;;;;;;;;;;;;;;5067150;28;20378;-77
2021/11/09 07:01:40;;;;;;;;;;;;;;;;;;5059841;28;19959;-77
2021/11/09 07:04:06;;;;;;;;;;;;;;;;;;5064700;28;19908;-77
2021/11/09 07:06:32;;;;;;;;;;;;;;;;;;5062948;28;19957;-77
2021/11/09 07:08:58;;;;;;;;;;;;;;;;;;5078703;28;19961;-77
2021/11/09 07:11:24;;;;;;;;;;;;;;;;;;5068154;28;20089;-77
2021/11/09 07:13:49;;;;;;;;;;;;;;;;;;5058237;28;20371;-78
2021/11/09 07:16:16;;;;;;;;;;;;;;;;;;5058546;28;20524;-78
2021/11/09 07:18:42;;;;;;;;;;;;;;;;;;5048509;28;20038;-77
2021/11/09 07:21:10;;;;;;;;;;;;;;;;;;5066826;28;19982;-78
2021/11/09 07:23:36;;;;;;;;;;;;;;;;;;5065588;28;19909;-78
2021/11/09 07:26:02;;;;;;;;;;;;;;;;;;5063311;28;19915;-77
2021/11/09 07:28:28;;;;;;;;;;;;;;;;;;5050438;28;20372;-78
2021/11/09 07:30:59;;;;;;;;;;;;;;;;;;5068749;28;20256;-77
2021/11/09 07:33:25;;;;;;;;;;;;;;;;;;5080383;28;20384;-76
2021/11/09 07:35:50;;;;;;;;;;;;;;;;;;5080589;28;19913;-76
2021/11/09 07:38:17;;;;;;;;;;;;;;;;;;5088539;28;19962;-77
2021/11/09 07:40:44;;;;;;;;;;;;;;;;;;5067582;28;19978;-76
2021/11/09 07:43:10;;;;;;;;;;;;;;;;;;5063653;28;20031;-77
2021/11/09 07:45:37;;;;;;;;;;;;;;;;;;5070214;28;20382;-78
2021/11/09 07:48:03;;;;;;;;;;;;;;;;;;5072964;28;19942;-78
2021/11/09 07:50:29;;;;;;;;;;;;;;;;;;5077112;28;19955;-79
2021/11/09 07:53:00;;;;;;;;;;;;;;;;;;5089332;28;20418;-78
2021/11/09 07:55:26;;;;;;;;;;;;;;;;;;5081753;28;20215;-77
2021/11/09 07:57:58;;;;;;;;;;;;;;;;;;5070384;28;19908;-77
2021/11/09 08:00:39;;;;;;;;;;;;;;;;;;5072476;28;19967;-76
2021/11/09 08:03:14;;;;;;;;;;;;;;;;;;5072244;28;19918;-76
2021/11/09 08:06:08;;;;;;;;;;;;;;;;;;5072438;28;19904;-76
2021/11/09 08:08:41;;;;;;;;;;;;;;;;;;5074048;28;19908;-75
2021/11/09 08:11:07;;;;;;;;;;;;;;;;;;5061376;28;19908;-75
2021/11/09 08:13:33;;;;;;;;;;;;;;;;;;5072945;28;19955;-77
2021/11/09 08:16:00;;;;;;;;;;;;;;;;;;5072706;28;19950;-77
2021/11/09 08:18:27;;;;;;;;;;;;;;;;;;5071751;28;19985;-76
2021/11/09 08:20:53;;;;;;;;;;;;;;;;;;5071861;28;19916;-76
2021/11/09 08:23:18;;;;;;;;;;;;;;;;;;5079930;28;19912;-76
2021/11/09 08:25:44;;;;;;;;;;;;;;;;;;5071635;28;20384;-77
2021/11/09 08:28:10;;;;;;;;;;;;;;;;;;5070628;28;19942;-76
2021/11/09 08:30:36;;;;;;;;;;;;;;;;;;5071327;28;19951;-77
2021/11/09 08:33:04;;;;;;;;;;;;;;;;;;5063105;28;19916;-75
2021/11/09 08:35:31;;;;;;;;;;;;;;;;;;5071965;28;20296;-78
2021/11/09 08:37:57;;;;;;;;;;;;;;;;;;5089547;28;20145;-77
2021/11/09 08:40:23;;;;;;;;;;;;;;;;;;5063888;28;19908;-77
2021/11/09 08:42:50;;;;;;;;;;;;;;;;;;5075312;28;20373;-76
2021/11/09 08:47:54;;;;;;;;;;;;;;;;;;5085018;28;20415;-77
2021/11/09 08:50:22;;;;;;;;;;;;;;;;;;5067953;28;19969;-79
2021/11/09 08:52:48;;;;;;;;;;;;;;;;;;5052882;28;19912;-76
2021/11/09 08:58:13;;;;;;;;;;;;;;;;;;5089150;28;19908;-78
2021/11/09 09:06:11;;;;;;;;;;;;;;;;;;5083556;28;19915;-77
2021/11/09 09:08:37;;;;;;;;;;;;;;;;;;5066351;28;19993;-77
2021/11/09 09:11:04;;;;;;;;;;;;;;;;;;5071817;28;20168;-77
2021/11/09 09:13:29;;;;;;;;;;;;;;;;;;5086132;28;20552;-78
2021/11/09 09:15:55;;;;;;;;;;;;;;;;;;5066809;28;19908;-77
2021/11/09 09:18:22;;;;;;;;;;;;;;;;;;5066032;28;19908;-79
2021/11/09 09:20:50;;;;;;;;;;;;;;;;;;5064675;28;19924;-76
2021/11/09 09:23:27;;;;;;;;;;;;;;;;;;5077470;28;19908;-75
2021/11/09 09:55:41;;;;;;;;;;;;;;;;;;5052787;28;19912;-78
2021/11/09 09:58:07;;;;;;;;;;;;;;;;;;5057975;28;20378;-77
2021/11/09 10:00:33;;;;;;;;;;;;;;;;;;5058822;28;19915;-77
2021/11/09 10:02:59;;;;;;;;;;;;;;;;;;5059466;28;19903;-79
2021/11/09 10:05:25;;;;;;;;;;;;;;;;;;5060435;28;19911;-77
2021/11/09 10:07:52;;;;;;;;;;;;;;;;;;5057755;28;19913;-75
2021/11/09 10:10:18;;;;;;;;;;;;;;;;;;5077746;28;20050;-77
2021/11/09 10:12:44;;;;;;;;;;;;;;;;;;5077458;28;19994;-78
2021/11/09 10:15:17;;;;;;;;;;;;;;;;;;5098682;27;19912;-69
2021/11/09 10:17:43;;;;;;;;;;;;;;;;;;5097909;28;19942;-69
2021/11/09 10:20:09;;;;;;;;;;;;;;;;;;5092408;28;19911;-70
2021/11/09 10:22:35;;;;;;;;;;;;;;;;;;5091001;28;20372;-69
2021/11/09 10:25:01;;;;;;;;;;;;;;;;;;5092158;28;19931;-70
2021/11/09 10:27:27;;;;;;;;;;;;;;;;;;5091064;28;20420;-70
2021/11/09 10:29:54;;;;;;;;;;;;;;;;;;5091912;28;19908;-69
2021/11/09 10:32:19;;;;;;;;;;;;;;;;;;5093006;28;20215;-70
2021/11/09 10:34:46;;;;;;;;;;;;;;;;;;5092442;28;19912;-69
2021/11/09 10:37:11;;;;;;;;;;;;;;;;;;5092979;28;19995;-69
2021/11/09 10:39:37;;;;;;;;;;;;;;;;;;5091083;28;20015;-69
2021/11/09 10:42:03;;;;;;;;;;;;;;;;;;5090426;28;19916;-69
2021/11/09 10:44:29;;;;;;;;;;;;;;;;;;5091398;28;20437;-69
2021/11/09 10:46:55;;;;;;;;;;;;;;;;;;5090252;28;19985;-69
2021/11/09 10:49:21;;;;;;;;;;;;;;;;;;5092060;28;19911;-70
2021/11/09 10:51:47;;;;;;;;;;;;;;;;;;5090446;28;19927;-69
2021/11/09 10:54:13;;;;;;;;;;;;;;;;;;5091931;28;19912;-70
2021/11/09 10:57:08;;;;;;;;;;;;;;;;;;5092512;28;20464;-71
2021/11/09 10:59:45;;;;;;;;;;;;;;;;;;5107659;27;20543;-70
2021/11/09 11:04:55;;;;;;;;;;;;;;;;;;5093415;28;20385;-70
2021/11/09 11:07:21;;;;;;;;;;;;;;;;;;5094979;28;19908;-70
2021/11/09 11:09:47;;;;;;;;;;;;;;;;;;5092913;28;19915;-70
2021/11/09 11:12:14;;;;;;;;;;;;;;;;;;5093127;28;19908;-70
2021/11/09 11:14:40;;;;;;;;;;;;;;;;;;5089883;28;19924;-69
2021/11/09 11:17:09;;;;;;;;;;;;;;;;;;5088789;28;19920;-70
2021/11/09 11:19:34;;;;;;;;;;;;;;;;;;5094833;28;19999;-70
2021/11/09 11:22:00;;;;;;;;;;;;;;;;;;5091951;28;19991;-71
2021/11/09 11:24:26;;;;;;;;;;;;;;;;;;5090911;28;19909;-69
2021/11/09 11:26:52;;;;;;;;;;;;;;;;;;5075534;28;20003;-69
2021/11/09 11:29:18;;;;;;;;;;;;;;;;;;5076893;28;19958;-70
2021/11/09 11:31:44;;;;;;;;;;;;;;;;;;5077187;28;19951;-70
2021/11/09 11:34:10;;;;;;;;;;;;;;;;;;5077171;28;19924;-70
2021/11/09 11:36:36;;;;;;;;;;;;;;;;;;5077182;28;19951;-70
2021/11/09 11:39:01;;;;;;;;;;;;;;;;;;5077577;28;20132;-71
2021/11/09 11:41:27;;;;;;;;;;;;;;;;;;5077815;28;19921;-70
2021/11/09 11:43:53;;;;;;;;;;;;;;;;;;5075795;28;20368;-70
2021/11/09 11:46:19;;;;;;;;;;;;;;;;;;5077399;28;19991;-69
2021/11/09 11:48:45;;;;;;;;;;;;;;;;;;5075692;28;20364;-70
2021/11/09 11:51:11;;;;;;;;;;;;;;;;;;5076541;28;19908;-70
2021/11/09 11:53:37;;;;;;;;;;;;;;;;;;5073991;28;20030;-71
2021/11/09 11:56:02;;;;;;;;;;;;;;;;;;5072736;28;19917;-70
2021/11/09 11:58:28;;;;;;;;;;;;;;;;;;5076710;28;20505;-69
2021/11/09 12:00:59;;;;;;;;;;;;;;;;;;5077724;28;19912;-70
2021/11/09 12:03:25;;;;;;;;;;;;;;;;;;5074672;28;20461;-70
2021/11/09 12:05:52;;;;;;;;;;;;;;;;;;5076829;28;19909;-69
2021/11/09 12:08:19;;;;;;;;;;;;;;;;;;5075916;28;20011;-70
2021/11/09 12:10:45;;;;;;;;;;;;;;;;;;5077051;28;19912;-69
2021/11/09 12:13:14;;;;;;;;;;;;;;;;;;5078370;28;19916;-70
2021/11/09 12:15:41;;;;;;;;;;;;;;;;;;5096948;28;20037;-70
2021/11/09 12:18:07;;;;;;;;;;;;;;;;;;5094594;28;19966;-70
2021/11/09 12:20:36;;;;;;;;;;;;;;;;;;5097748;28;19956;-70
2021/11/09 12:23:03;;;;;;;;;;;;;;;;;;5091707;28;20367;-71
2021/11/09 12:25:29;;;;;;;;;;;;;;;;;;5094404;28;20375;-70
2021/11/09 12:27:57;;;;;;;;;;;;;;;;;;5098167;28;20325;-70
2021/11/09 12:30:29;;;;;;;;;;;;;;;;;;5096622;28;19913;-70
2021/11/09 12:32:56;;;;;;;;;;;;;;;;;;5093907;28;20440;-71
2021/11/09 12:35:24;;;;;;;;;;;;;;;;;;5095553;28;19939;-70
2021/11/09 12:37:51;;;;;;;;;;;;;;;;;;5094628;28;19914;-70
2021/11/09 12:40:17;;;;;;;;;;;;;;;;;;5096298;28;19912;-69
2021/11/09 12:42:43;;;;;;;;;;;;;;;;;;5096436;28;19995;-71
2021/11/09 12:45:10;;;;;;;;;;;;;;;;;;5096585;28;19916;-71
2021/11/09 12:47:36;;;;;;;;;;;;;;;;;;5096754;28;19935;-70
2021/11/09 12:50:05;;;;;;;;;;;;;;;;;;5095197;28;19909;-70
2021/11/09 12:52:41;;;;;;;;;;;;;;;;;;5094675;27;19946;-70
2021/11/09 12:55:07;;;;;;;;;;;;;;;;;;5091893;28;19947;-71
2021/11/09 12:57:37;;;;;;;;;;;;;;;;;;5093861;28;19912;-71
2021/11/09 13:00:08;;;;;;;;;;;;;;;;;;5067460;28;19916;-71
2021/11/09 13:02:48;;;;;;;;;;;;;;;;;;5067902;28;20371;-70
2021/11/09 13:05:25;;;;;;;;;;;;;;;;;;5078958;28;19965;-70
2021/11/09 13:07:52;;;;;;;;;;;;;;;;;;5087547;28;20397;-70
2021/11/09 13:10:21;;;;;;;;;;;;;;;;;;5087112;28;19908;-70
2021/11/09 13:12:50;;;;;;;;;;;;;;;;;;5079564;28;19912;-70
2021/11/09 13:15:16;;;;;;;;;;;;;;;;;;5067052;28;20420;-70
2021/11/09 13:17:44;;;;;;;;;;;;;;;;;;5065476;28;19915;-71
2021/11/09 13:20:18;;;;;;;;;;;;;;;;;;5071647;28;19943;-71
2021/11/09 13:22:44;;;;;;;;;;;;;;;;;;5066286;28;19919;-70
2021/11/09 13:25:10;;;;;;;;;;;;;;;;;;5072582;28;19908;-71
2021/11/09 13:27:36;;;;;;;;;;;;;;;;;;5080896;28;19916;-70
2021/11/09 13:30:02;;;;;;;;;;;;;;;;;;5073890;28;19919;-70
2021/11/09 13:32:28;;;;;;;;;;;;;;;;;;5070095;28;19948;-70
2021/11/09 13:34:55;;;;;;;;;;;;;;;;;;5066971;28;20304;-70
2021/11/09 13:37:22;;;;;;;;;;;;;;;;;;5068483;28;19969;-70
2021/11/09 13:39:48;;;;;;;;;;;;;;;;;;5069844;28;19962;-70
2021/11/09 13:42:13;;;;;;;;;;;;;;;;;;5069388;28;19956;-73
2021/11/09 13:44:39;;;;;;;;;;;;;;;;;;5073715;28;19958;-70
2021/11/09 13:47:05;;;;;;;;;;;;;;;;;;5072234;28;19943;-71
2021/11/09 13:49:31;;;;;;;;;;;;;;;;;;5069871;28;19909;-71
2021/11/09 13:51:58;;;;;;;;;;;;;;;;;;5070218;28;19908;-71
2021/11/09 13:54:25;;;;;;;;;;;;;;;;;;5067627;28;19912;-70
2021/11/09 13:56:52;;;;;;;;;;;;;;;;;;5067802;28;19995;-70
2021/11/09 13:59:20;;;;;;;;;;;;;;;;;;5066912;28;20028;-70
2021/11/09 14:17:39;;;;;;;;;;;;;;;;;;5066681;28;19920;-70
2021/11/09 14:20:05;;;;;;;;;;;;;;;;;;5066900;28;19908;-70
2021/11/09 14:22:31;;;;;;;;;;;;;;;;;;5064146;28;19974;-70
2021/11/09 14:24:57;;;;;;;;;;;;;;;;;;5066423;28;20374;-70
2021/11/09 14:27:22;;;;;;;;;;;;;;;;;;5064891;28;19954;-70
2021/11/09 14:29:48;;;;;;;;;;;;;;;;;;5064850;28;19908;-70
2021/11/09 14:32:18;;;;;;;;;;;;;;;;;;5066529;28;19916;-70
2021/11/09 14:34:43;;;;;;;;;;;;;;;;;;5066096;28;19913;-70
2021/11/09 14:37:10;;;;;;;;;;;;;;;;;;5066877;28;19923;-70
2021/11/09 14:39:41;;;;;;;;;;;;;;;;;;5066189;28;19908;-70
2021/11/09 14:42:10;;;;;;;;;;;;;;;;;;5066512;28;19909;-70
2021/11/09 14:44:36;;;;;;;;;;;;;;;;;;5066287;28;19915;-70
2021/11/09 14:47:01;;;;;;;;;;;;;;;;;;5064779;28;20348;-70
2021/11/09 14:49:39;;;;;;;;;;;;;;;;;;5066210;28;19908;-70
2021/11/09 14:52:08;;;;;;;;;;;;;;;;;;5065882;28;20135;-70
2021/11/09 14:54:35;;;;;;;;;;;;;;;;;;5070148;28;20227;-70
2021/11/09 14:57:01;;;;;;;;;;;;;;;;;;5086312;28;19914;-70
2021/11/09 14:59:27;;;;;;;;;;;;;;;;;;5086203;28;19908;-70
2021/11/09 15:04:29;;;;;;;;;;;;;;;;;;5089974;28;20279;-70
2021/11/09 15:07:04;;;;;;;;;;;;;;;;;;5089930;28;19916;-70
2021/11/09 15:29:09;;;;;;;;;;;;;;;;;;5015831;28;20394;-70
2021/11/09 15:31:48;;;;;;;;;;;;;;;;;;5062533;28;19908;-70
2021/11/09 15:34:50;;;;;;;;;;;;;;;;;;5068897;28;19913;-70
2021/11/09 15:37:22;;;;;;;;;;;;;;;;;;5068582;28;19997;-70
2021/11/09 15:39:47;;;;;;;;;;;;;;;;;;5069203;28;19912;-71
2021/11/09 15:42:14;;;;;;;;;;;;;;;;;;5069017;28;19912;-70
2021/11/09 15:44:41;;;;;;;;;;;;;;;;;;5070604;28;19916;-73
2021/11/09 15:47:07;;;;;;;;;;;;;;;;;;5086490;28;20293;-69
2021/11/09 15:49:33;;;;;;;;;;;;;;;;;;5089369;28;19912;-71
2021/11/09 15:51:59;;;;;;;;;;;;;;;;;;5090932;28;20366;-71
2021/11/09 15:54:25;;;;;;;;;;;;;;;;;;5087132;28;19956;-71
2021/11/09 15:56:51;;;;;;;;;;;;;;;;;;5073965;28;19980;-71
2021/11/09 15:59:17;;;;;;;;;;;;;;;;;;5073788;28;19912;-71
2021/11/09 16:01:43;;;;;;;;;;;;;;;;;;5072023;28;19954;-71
2021/11/09 16:04:13;;;;;;;;;;;;;;;;;;5090392;28;20011;-71
2021/11/09 16:06:40;;;;;;;;;;;;;;;;;;5091221;28;20450;-71
2021/11/09 16:09:08;;;;;;;;;;;;;;;;;;5086080;28;19923;-71
2021/11/09 16:11:36;;;;;;;;;;;;;;;;;;5092291;28;19912;-71
2021/11/09 16:14:02;;;;;;;;;;;;;;;;;;5068441;28;19924;-71
2021/11/09 16:16:27;;;;;;;;;;;;;;;;;;5068403;28;19908;-71
2021/11/09 16:18:53;;;;;;;;;;;;;;;;;;5069492;28;19920;-71
2021/11/09 16:21:20;;;;;;;;;;;;;;;;;;5085431;28;20313;-71
2021/11/09 16:23:46;;;;;;;;;;;;;;;;;;5086245;28;20122;-70
2021/11/09 16:26:12;;;;;;;;;;;;;;;;;;5085762;28;19969;-71
2021/11/09 16:28:38;;;;;;;;;;;;;;;;;;5086366;28;19912;-71
2021/11/09 16:31:07;;;;;;;;;;;;;;;;;;5088472;28;19999;-71
2021/11/09 16:33:37;;;;;;;;;;;;;;;;;;5086880;28;19912;-71
2021/11/09 16:36:08;;;;;;;;;;;;;;;;;;5086900;28;19908;-72
2021/11/09 16:38:38;;;;;;;;;;;;;;;;;;5067769;28;19916;-71
2021/11/09 16:41:05;;;;;;;;;;;;;;;;;;5067935;28;19912;-71
2021/11/09 16:43:37;;;;;;;;;;;;;;;;;;5067868;28;19920;-71
2021/11/09 16:46:24;;;;;;;;;;;;;;;;;;5065980;28;19962;-71
2021/11/09 16:49:00;;;;;;;;;;;;;;;;;;5067196;28;19909;-71
2021/11/09 16:51:30;;;;;;;;;;;;;;;;;;5066914;28;19924;-72
2021/11/09 16:54:07;;;;;;;;;;;;;;;;;;5063846;28;19947;-71
2021/11/09 17:04:56;;;;;;;;;;;;;;;;;;5086906;28;19912;-72
2021/11/09 18:20:50;;;;;;;;;;;;;;;;;;5090230;28;19931;-71
2021/11/09 18:23:16;;;;;;;;;;;;;;;;;;5074512;28;19908;-71
2021/11/09 18:25:42;;;;;;;;;;;;;;;;;;5068518;28;19991;-71
2021/11/09 18:28:08;;;;;;;;;;;;;;;;;;5069616;28;19923;-72
2021/11/09 18:30:34;;;;;;;;;;;;;;;;;;5070222;28;20341;-71
2021/11/09 18:33:00;;;;;;;;;;;;;;;;;;5069906;28;19999;-71
2021/11/09 18:35:26;;;;;;;;;;;;;;;;;;5074023;28;20539;-71
2021/11/09 18:37:52;;;;;;;;;;;;;;;;;;5094042;28;19954;-71
2021/11/09 18:40:18;;;;;;;;;;;;;;;;;;5094083;28;20383;-71
2021/11/09 18:42:45;;;;;;;;;;;;;;;;;;5092996;28;19965;-70
2021/11/09 18:45:13;;;;;;;;;;;;;;;;;;5090980;28;19959;-70
2021/11/09 18:47:39;;;;;;;;;;;;;;;;;;5092453;28;19916;-71
2021/11/09 18:50:06;;;;;;;;;;;;;;;;;;5094143;28;19908;-71
2021/11/09 18:52:32;;;;;;;;;;;;;;;;;;5084795;28;20618;-70
2021/11/09 18:54:58;;;;;;;;;;;;;;;;;;5093575;28;19916;-70
2021/11/09 18:57:24;;;;;;;;;;;;;;;;;;5090563;28;19908;-71
2021/11/09 18:59:50;;;;;;;;;;;;;;;;;;5092194;28;19948;-70
2021/11/09 19:02:16;;;;;;;;;;;;;;;;;;5091875;28;20482;-71
2021/11/09 19:04:42;;;;;;;;;;;;;;;;;;5092082;28;19908;-71
2021/11/09 19:07:08;;;;;;;;;;;;;;;;;;5093636;28;20356;-71
2021/11/09 19:09:34;;;;;;;;;;;;;;;;;;5092465;28;19908;-68
2021/11/09 19:12:00;;;;;;;;;;;;;;;;;;5090859;28;20042;-71
2021/11/09 19:14:26;;;;;;;;;;;;;;;;;;5089792;28;19924;-72
2021/11/09 19:16:53;;;;;;;;;;;;;;;;;;5089635;28;19908;-71
2021/11/09 19:19:19;;;;;;;;;;;;;;;;;;5089585;28;20389;-71
2021/11/09 19:21:45;;;;;;;;;;;;;;;;;;5074395;28;19934;-71
2021/11/09 19:24:11;;;;;;;;;;;;;;;;;;5066073;28;20035;-71
2021/11/09 19:26:39;;;;;;;;;;;;;;;;;;5074988;28;19950;-72
2021/11/09 19:29:04;;;;;;;;;;;;;;;;;;5083439;28;20277;-71
2021/11/09 19:31:30;;;;;;;;;;;;;;;;;;5089510;28;20214;-71
2021/11/09 19:33:56;;;;;;;;;;;;;;;;;;5086775;28;20343;-71
2021/11/09 19:36:22;;;;;;;;;;;;;;;;;;5079057;28;19912;-71
2021/11/09 19:38:48;;;;;;;;;;;;;;;;;;5069272;28;19918;-71
2021/11/09 19:41:14;;;;;;;;;;;;;;;;;;5081178;28;20290;-71
2021/11/09 19:43:41;;;;;;;;;;;;;;;;;;5086650;28;19908;-72
2021/11/09 19:46:07;;;;;;;;;;;;;;;;;;5087168;28;19995;-71
2021/11/09 19:48:35;;;;;;;;;;;;;;;;;;5089424;28;19955;-71
2021/11/09 19:51:03;;;;;;;;;;;;;;;;;;5089202;28;20390;-71
2021/11/09 19:53:29;;;;;;;;;;;;;;;;;;5074403;28;19915;-71
2021/11/09 19:55:58;;;;;;;;;;;;;;;;;;5067522;28;19995;-71
2021/11/09 19:58:25;;;;;;;;;;;;;;;;;;5068558;28;19908;-71
2021/11/09 20:00:51;;;;;;;;;;;;;;;;;;5069427;28;19997;-71
2021/11/09 20:03:19;;;;;;;;;;;;;;;;;;5067312;28;20362;-71
2021/11/09 20:05:48;;;;;;;;;;;;;;;;;;5068575;28;19957;-71
2021/11/09 20:08:14;;;;;;;;;;;;;;;;;;5068980;28;19908;-72
2021/11/09 20:10:44;;;;;;;;;;;;;;;;;;5068168;28;19938;-71
2021/11/09 20:13:12;;;;;;;;;;;;;;;;;;5068472;28;19923;-72
2021/11/09 20:15:43;;;;;;;;;;;;;;;;;;5068617;28;20272;-71
2021/11/09 20:18:10;;;;;;;;;;;;;;;;;;5068840;28;20726;-71
2021/11/09 20:20:35;;;;;;;;;;;;;;;;;;5077761;28;20395;-71
2021/11/09 20:23:01;;;;;;;;;;;;;;;;;;5073354;28;19920;-71
2021/11/09 20:25:27;;;;;;;;;;;;;;;;;;5086869;28;20336;-72
2021/11/09 20:27:54;;;;;;;;;;;;;;;;;;5081918;28;19999;-71
2021/11/09 20:30:19;;;;;;;;;;;;;;;;;;5068048;28;20389;-72
2021/11/09 20:32:46;;;;;;;;;;;;;;;;;;5067953;28;19940;-71
2021/11/09 20:35:12;;;;;;;;;;;;;;;;;;5074560;28;19917;-71
2021/11/09 20:37:38;;;;;;;;;;;;;;;;;;5076629;28;19919;-71
2021/11/09 20:40:04;;;;;;;;;;;;;;;;;;5088220;28;20315;-71
2021/11/09 20:42:30;;;;;;;;;;;;;;;;;;5072455;28;19913;-71
2021/11/09 20:44:56;;;;;;;;;;;;;;;;;;5066417;28;20460;-71
2021/11/09 20:47:22;;;;;;;;;;;;;;;;;;5067682;28;19909;-71
2021/11/09 20:49:48;;;;;;;;;;;;;;;;;;5067776;28;19909;-71
2021/11/09 20:52:14;;;;;;;;;;;;;;;;;;5073827;28;19961;-72
2021/11/09 20:54:40;;;;;;;;;;;;;;;;;;5072080;28;20002;-71
2021/11/09 20:57:06;;;;;;;;;;;;;;;;;;5067372;28;19912;-71
2021/11/09 20:59:31;;;;;;;;;;;;;;;;;;5068593;28;19948;-71
2021/11/09 21:01:57;;;;;;;;;;;;;;;;;;5084709;28;19916;-71
2021/11/09 21:04:23;;;;;;;;;;;;;;;;;;5087503;28;20237;-71
2021/11/09 21:06:49;;;;;;;;;;;;;;;;;;5079176;28;19955;-70